KCRW/CRW METAR and TAF weather

Enter ICAO airport designator
Station Type Date Time Source
KCRW METAR 2019/10/15 07:54 UTC NOAA

KCRW 150754Z 00000KT 10SM FEW001 06/04 A3013 RMK AO2 SLP200 VLY FG T00560044 $


Station Type Date Time Source
KCRW Decoded METAR 2019/10/15 07:54 UTC NOAA

YEAGER AIRPORT, WV, United States (KCRW) 38-22N 081-36W 309M
Oct 15, 2019 - 03:54 AM EDT / 2019.10.15 0754 UTC
Wind: Calm:0
Visibility: 10 mile(s):0
Sky conditions: mostly clear
Temperature: 42.1 F (5.6 C)
Dew Point: 39.9 F (4.4 C)
Relative Humidity: 91%
Pressure (altimeter): 30.13 in. Hg (1020 hPa)
ob: KCRW 150754Z 00000KT 10SM FEW001 06/04 A3013 RMK AO2 SLP200 VLY FG T00560044
cycle: 8

Station Type Date Time Source
KCRW TAF 2019/10/15 06:42 UTC NOAA

TAF KCRW 150538Z 1506/1606 00000KT P6SM SKC
FM151000 00000KT 5SM BR SCT001
FM151200 00000KT 3SM BR SCT001
FM151300 18004KT P6SM FEW200
FM160500 VRB03KT P6SM SCT080

Example: see airport list